Time;durP1;ratioP1;P1;durP2;ratioP2;P2;SDS_P1;SDS_P2;PMS_P1;PMS_P2;Temp;Humidity;BMP_temperature;BMP_pressure;BME280_temperature;BME280_humidity;BME280_pressure;Samples;Min_cycle;Max_cycle;Signal;HPM_P1;HPM_P2
2022/12/21 00:00:12;;;;;;;15.93;14.33;;;;;21.40;99944.00;;;;2062081;28;20211;-55
2022/12/21 00:01:24;;;;;;;15.53;13.90;;;;;21.40;99948.00;;;;2067188;28;20468;-54
2022/12/21 00:02:24;;;;;;;17.83;15.93;;;;;21.40;99940.00;;;;2059105;28;20669;-54
2022/12/21 00:03:24;;;;;;;14.90;13.30;;;;;21.40;99940.00;;;;2068065;28;20226;-52
2022/12/21 00:04:26;;;;;;;14.60;13.10;;;;;21.40;99931.00;;;;2071238;28;20217;-54
2022/12/21 00:05:26;;;;;;;15.38;13.88;;;;;21.40;99939.00;;;;2071274;28;20221;-53
2022/12/21 00:06:28;;;;;;;15.27;13.67;;;;;21.40;99930.00;;;;2071210;28;20236;-53
2022/12/21 00:07:28;;;;;;;15.65;13.90;;;;;21.40;99936.00;;;;2071237;28;20226;-54
2022/12/21 00:08:29;;;;;;;14.27;12.77;;;;;21.40;99935.00;;;;2070565;28;20207;-55
2022/12/21 00:09:29;;;;;;;13.83;12.43;;;;;21.40;99932.00;;;;2067080;28;20219;-53
2022/12/21 00:10:29;;;;;;;13.73;12.30;;;;;21.40;99942.00;;;;2063288;28;20226;-53
2022/12/21 00:11:30;;;;;;;13.50;12.10;;;;;21.40;99942.00;;;;2063203;28;20238;-53
2022/12/21 00:12:30;;;;;;;14.60;13.10;;;;;21.20;99930.00;;;;2062258;28;20479;-53
2022/12/21 00:13:31;;;;;;;14.90;12.30;;;;;21.40;99944.00;;;;2067961;28;20261;-54
2022/12/21 00:14:32;;;;;;;13.40;11.83;;;;;21.40;99939.00;;;;2061328;28;20219;-53
2022/12/21 00:15:32;;;;;;;13.87;12.47;;;;;21.40;99938.00;;;;2062578;28;20359;-53
2022/12/21 00:16:36;;;;;;;12.23;11.03;;;;;21.30;99935.00;;;;2070886;28;20768;-54
2022/12/21 00:17:36;;;;;;;12.95;11.65;;;;;21.30;99940.00;;;;2070582;28;20592;-55
2022/12/21 00:18:37;;;;;;;12.73;11.37;;;;;21.40;99938.00;;;;2071089;28;20228;-52
2022/12/21 00:19:37;;;;;;;13.23;11.57;;;;;21.40;99942.00;;;;2068353;28;20215;-54
2022/12/21 00:20:37;;;;;;;12.77;11.40;;;;;21.30;99942.00;;;;2062675;28;20215;-54
2022/12/21 00:21:38;;;;;;;12.27;10.97;;;;;21.40;99937.00;;;;2067703;28;20218;-53
2022/12/21 00:22:38;;;;;;;12.80;11.50;;;;;21.30;99941.00;;;;2070095;28;20218;-53
2022/12/21 00:23:38;;;;;;;11.60;10.40;;;;;21.30;99942.00;;;;2070873;28;20226;-52
2022/12/21 00:24:39;;;;;;;12.03;10.80;;;;;21.40;99941.00;;;;2071151;28;20707;-54
2022/12/21 00:25:39;;;;;;;12.50;10.33;;;;;21.30;99951.00;;;;2071126;28;20237;-54
2022/12/21 00:26:39;;;;;;;12.63;10.40;;;;;21.30;99949.00;;;;2071151;28;20267;-54
2022/12/21 00:27:40;;;;;;;11.13;10.03;;;;;21.30;99943.00;;;;2070648;28;20242;-54
2022/12/21 00:28:40;;;;;;;10.27;9.27;;;;;21.30;99951.00;;;;2071239;28;20245;-55
2022/12/21 00:29:40;;;;;;;10.20;9.20;;;;;21.30;99945.00;;;;2070798;28;20215;-52
2022/12/21 00:30:41;;;;;;;11.50;10.50;;;;;21.30;99951.00;;;;2070847;28;20237;-53
2022/12/21 00:31:41;;;;;;;11.00;9.90;;;;;21.30;99962.00;;;;2070958;28;20218;-53
2022/12/21 00:32:41;;;;;;;10.50;9.40;;;;;21.30;99940.00;;;;2067146;28;20226;-53
2022/12/21 00:33:42;;;;;;;11.13;10.07;;;;;21.30;99943.00;;;;2062623;28;20782;-55
2022/12/21 00:34:42;;;;;;;10.47;9.40;;;;;21.30;99952.00;;;;2062926;28;20277;-53
2022/12/21 00:35:49;;;;;;;9.80;8.90;;;;;21.30;99952.00;;;;2062307;28;20273;-54
2022/12/21 00:36:50;;;;;;;11.38;9.68;;;;;21.30;99955.00;;;;2061884;28;20215;-53
2022/12/21 00:37:50;;;;;;;10.93;9.80;;;;;21.30;99952.00;;;;2062663;28;20245;-54
2022/12/21 00:38:51;;;;;;;10.00;9.00;;;;;21.30;99945.00;;;;2045979;28;20222;-54
2022/12/21 00:39:51;;;;;;;9.87;8.97;;;;;21.30;99949.00;;;;2046467;28;20216;-54
2022/12/21 00:40:59;;;;;;;10.40;9.40;;;;;21.30;99955.00;;;;2063000;28;20218;-55
2022/12/21 00:41:59;;;;;;;9.60;8.45;;;;;21.30;99948.00;;;;2061699;28;20302;-53
2022/12/21 00:42:59;;;;;;;9.97;8.87;;;;;21.30;99943.00;;;;2062910;28;20211;-53
2022/12/21 00:44:00;;;;;;;11.30;9.47;;;;;21.30;99941.00;;;;2066550;28;20234;-53
2022/12/21 00:45:00;;;;;;;10.30;9.30;;;;;21.30;99938.00;;;;2058858;28;20222;-55
2022/12/21 00:46:00;;;;;;;9.50;8.60;;;;;21.30;99943.00;;;;2062357;28;20794;-55
2022/12/21 00:47:01;;;;;;;9.53;8.63;;;;;21.30;99935.00;;;;2070788;28;20611;-54
2022/12/21 00:48:01;;;;;;;10.03;9.10;;;;;21.20;99934.00;;;;2069973;28;20229;-53
2022/12/21 00:49:04;;;;;;;9.80;8.80;;;;;21.20;99938.00;;;;2066460;28;20249;-54
2022/12/21 00:50:05;;;;;;;10.43;9.32;;;;;21.20;99943.00;;;;2062938;28;20230;-54
2022/12/21 00:51:07;;;;;;;11.30;10.20;;;;;21.20;99938.00;;;;2062929;28;20242;-53
2022/12/21 00:52:07;;;;;;;8.57;7.75;;;;;21.20;99932.00;;;;2061803;28;20536;-54
2022/12/21 00:53:11;;;;;;;9.57;8.57;;;;;21.20;99933.00;;;;2061900;28;20210;-53
2022/12/21 00:54:12;;;;;;;9.50;8.57;;;;;21.20;99939.00;;;;2062194;28;20211;-54
2022/12/21 00:55:12;;;;;;;9.20;8.30;;;;;21.20;99938.00;;;;2065125;28;20581;-54
2022/12/21 00:56:12;;;;;;;8.97;8.17;;;;;21.20;99935.00;;;;2063164;28;20293;-55
2022/12/21 00:57:13;;;;;;;8.30;7.43;;;;;21.20;99942.00;;;;2062941;28;20214;-52
2022/12/21 00:58:13;;;;;;;9.57;8.57;;;;;21.20;99930.00;;;;2062832;28;20218;-55
2022/12/21 00:59:13;;;;;;;8.87;7.80;;;;;21.20;99937.00;;;;2062733;28;20226;-55
2022/12/21 01:00:14;;;;;;;8.40;7.60;;;;;21.20;99933.00;;;;2062493;28;20297;-55
2022/12/21 01:01:18;;;;;;;9.68;8.27;;;;;21.20;99939.00;;;;2062664;28;20770;-54
2022/12/21 01:02:18;;;;;;;7.90;7.20;;;;;21.20;99947.00;;;;2060884;28;20260;-54
2022/12/21 01:03:19;;;;;;;8.93;7.67;;;;;21.20;99941.00;;;;2062087;28;20632;-53
2022/12/21 01:04:21;;;;;;;8.50;7.57;;;;;21.20;99944.00;;;;2070023;28;20233;-55
2022/12/21 01:05:21;;;;;;;8.18;7.38;;;;;21.20;99943.00;;;;2070788;28;20222;-53
2022/12/21 01:06:23;;;;;;;7.97;7.17;;;;;21.20;99940.00;;;;2070840;28;20241;-55
2022/12/21 01:07:23;;;;;;;8.57;7.10;;;;;21.10;99940.00;;;;2070841;28;20241;-54
2022/12/21 01:08:24;;;;;;;9.33;7.63;;;;;21.10;99938.00;;;;2070622;28;20221;-55
2022/12/21 01:09:24;;;;;;;8.23;7.43;;;;;21.10;99941.00;;;;2070625;28;20218;-55
2022/12/21 01:10:25;;;;;;;7.87;7.17;;;;;21.10;99937.00;;;;2070465;28;21140;-53
2022/12/21 01:11:27;;;;;;;7.53;6.83;;;;;21.10;99942.00;;;;2070410;28;20202;-54
2022/12/21 01:12:27;;;;;;;7.85;7.05;;;;;21.10;99943.00;;;;2069845;28;20582;-55
2022/12/21 01:13:28;;;;;;;8.20;7.50;;;;;21.10;99945.00;;;;2070716;28;20222;-54
2022/12/21 01:14:28;;;;;;;8.23;7.43;;;;;21.10;99940.00;;;;2061147;28;20322;-54
2022/12/21 01:15:28;;;;;;;7.63;6.83;;;;;21.10;99940.00;;;;2061772;28;20215;-55
2022/12/21 01:16:29;;;;;;;7.33;6.63;;;;;21.10;99949.00;;;;2070403;28;20675;-54
2022/12/21 01:17:30;;;;;;;7.40;6.65;;;;;21.10;99947.00;;;;2070797;28;20226;-53
2022/12/21 01:18:30;;;;;;;7.10;6.40;;;;;21.10;99945.00;;;;2069981;28;20714;-55
2022/12/21 01:19:31;;;;;;;7.40;6.70;;;;;21.10;99940.00;;;;2068149;28;20233;-55
2022/12/21 01:20:31;;;;;;;7.57;6.77;;;;;21.10;99941.00;;;;2062273;28;20215;-55
2022/12/21 01:21:31;;;;;;;7.50;6.80;;;;;21.10;99936.00;;;;2062561;28;20214;-55
2022/12/21 01:22:32;;;;;;;7.60;6.90;;;;;21.10;99941.00;;;;2061763;28;20245;-55
2022/12/21 01:23:32;;;;;;;7.60;6.80;;;;;21.10;99950.00;;;;2062342;28;20235;-55
2022/12/21 01:24:33;;;;;;;8.17;7.33;;;;;21.10;99943.00;;;;2062581;28;20220;-55
2022/12/21 01:25:33;;;;;;;7.23;6.63;;;;;21.10;99943.00;;;;2062402;28;20223;-54
2022/12/21 01:26:33;;;;;;;7.10;6.40;;;;;21.10;99952.00;;;;2062540;28;20280;-55
2022/12/21 01:27:34;;;;;;;7.77;6.97;;;;;21.10;99946.00;;;;2061350;28;20226;-55
2022/12/21 01:28:34;;;;;;;7.70;7.00;;;;;21.10;99953.00;;;;2053895;28;20216;-55
2022/12/21 01:29:35;;;;;;;7.80;6.97;;;;;21.10;99957.00;;;;2058171;28;20211;-54
2022/12/21 01:30:35;;;;;;;6.43;5.83;;;;;21.10;99952.00;;;;2061806;28;20211;-55
2022/12/21 01:31:36;;;;;;;6.70;6.00;;;;;21.10;99956.00;;;;2065324;28;21122;-55
2022/12/21 01:32:37;;;;;;;7.87;7.07;;;;;21.10;99966.00;;;;2069433;28;20218;-53
2022/12/21 01:33:37;;;;;;;7.73;6.93;;;;;21.10;99964.00;;;;2070348;28;20214;-55
2022/12/21 01:34:38;;;;;;;7.00;6.30;;;;;21.00;99968.00;;;;2070563;28;20509;-54
2022/12/21 01:35:40;;;;;;;7.70;6.77;;;;;21.10;99959.00;;;;2070618;28;20449;-54
2022/12/21 01:36:40;;;;;;;7.35;6.65;;;;;21.10;99960.00;;;;2070189;28;20221;-54
2022/12/21 01:37:40;;;;;;;7.33;6.57;;;;;21.10;99961.00;;;;2070412;28;20253;-55
2022/12/21 01:38:41;;;;;;;7.20;6.50;;;;;21.10;99959.00;;;;2070313;28;20226;-54
2022/12/21 01:39:41;;;;;;;7.20;6.50;;;;;21.00;99965.00;;;;2070652;28;20221;-54
2022/12/21 01:40:42;;;;;;;6.30;5.70;;;;;21.00;99965.00;;;;2070549;28;20214;-55
2022/12/21 01:41:42;;;;;;;6.80;6.20;;;;;21.00;99968.00;;;;2068761;28;20225;-55
2022/12/21 01:42:42;;;;;;;7.07;6.47;;;;;21.00;99968.00;;;;2069909;28;20283;-54
2022/12/21 01:43:51;;;;;;;7.27;6.57;;;;;21.00;99975.00;;;;2070250;28;20228;-55
2022/12/21 01:44:56;;;;;;;6.88;6.18;;;;;21.00;99972.00;;;;2069758;28;20304;-54
2022/12/21 01:45:56;;;;;;;7.03;6.30;;;;;21.00;99968.00;;;;2059236;28;20297;-54
2022/12/21 01:46:56;;;;;;;7.00;6.40;;;;;21.00;99966.00;;;;2053504;28;20219;-54
2022/12/21 01:48:01;;;;;;;7.13;6.40;;;;;21.00;99979.00;;;;2061566;28;20245;-54
2022/12/21 01:49:08;;;;;;;6.45;5.90;;;;;21.00;99966.00;;;;2054435;28;20289;-54
2022/12/21 01:50:30;;;;;;;7.50;5.97;;;;;21.00;99966.00;;;;2062440;28;20253;-53
2022/12/21 01:51:32;;;;;;;6.28;5.68;;;;;21.00;99969.00;;;;2053897;28;20816;-54
2022/12/21 01:52:32;;;;;;;7.13;6.35;;;;;21.00;99970.00;;;;2049441;28;20279;-54
2022/12/21 01:53:37;;;;;;;6.60;5.90;;;;;20.90;99972.00;;;;2053756;28;20499;-55
2022/12/21 01:54:43;;;;;;;6.88;6.25;;;;;21.00;99972.00;;;;2053149;28;20215;-55
2022/12/21 01:55:43;;;;;;;6.75;6.13;;;;;21.00;99965.00;;;;2048248;28;20219;-54
2022/12/21 01:56:45;;;;;;;7.43;6.50;;;;;21.00;99971.00;;;;2040840;28;20696;-54
2022/12/21 01:57:45;;;;;;;6.57;5.97;;;;;21.00;99962.00;;;;2030915;29;20301;-54
2022/12/21 01:58:45;;;;;;;6.67;6.07;;;;;21.00;99960.00;;;;2037763;29;20903;-54
2022/12/21 01:59:47;;;;;;;7.27;6.57;;;;;21.00;99963.00;;;;2045767;28;20586;-54
2022/12/21 02:00:48;;;;;;;7.50;6.60;;;;;21.00;99968.00;;;;2038037;29;20329;-54
2022/12/21 02:01:48;;;;;;;7.00;6.30;;;;;21.00;99959.00;;;;2043672;28;20226;-55
2022/12/21 02:02:54;;;;;;;6.93;6.33;;;;;21.00;99964.00;;;;2052110;28;20219;-54
2022/12/21 02:03:55;;;;;;;7.05;6.45;;;;;21.00;99968.00;;;;2045824;28;20254;-55
2022/12/21 02:04:56;;;;;;;7.17;6.47;;;;;20.90;99970.00;;;;2047208;28;20227;-54
2022/12/21 02:06:13;;;;;;;7.20;6.50;;;;;21.00;99960.00;;;;2047199;28;20223;-54
2022/12/21 02:07:13;;;;;;;6.63;6.00;;;;;21.00;99962.00;;;;2050041;28;20833;-55
2022/12/21 02:08:13;;;;;;;6.73;6.13;;;;;20.90;99965.00;;;;2047099;29;20255;-54
2022/12/21 02:09:14;;;;;;;7.07;5.97;;;;;20.90;99962.00;;;;2055171;28;20224;-55
2022/12/21 02:10:14;;;;;;;7.70;6.47;;;;;20.90;99959.00;;;;2063443;28;20219;-54
2022/12/21 02:11:15;;;;;;;7.10;6.50;;;;;20.90;99960.00;;;;2055530;28;20250;-54
2022/12/21 02:12:15;;;;;;;6.67;6.00;;;;;20.90;99957.00;;;;2046454;28;20708;-55
2022/12/21 02:13:16;;;;;;;7.03;6.43;;;;;20.90;99956.00;;;;2055299;28;20299;-54
2022/12/21 02:14:16;;;;;;;6.47;5.87;;;;;20.90;99960.00;;;;2072128;28;20214;-54
2022/12/21 02:15:16;;;;;;;6.73;6.13;;;;;20.90;99963.00;;;;2071736;28;20216;-52
2022/12/21 02:16:31;;;;;;;7.30;6.60;;;;;20.90;99963.00;;;;2072370;28;20210;-53
2022/12/21 02:17:50;;;;;;;6.72;6.10;;;;;20.90;99971.00;;;;2071821;28;20313;-53
2022/12/21 02:18:58;;;;;;;7.15;6.45;;;;;20.90;99963.00;;;;2055027;28;20218;-54
2022/12/21 02:20:20;;;;;;;6.85;6.15;;;;;20.90;99964.00;;;;2057832;28;20267;-52
2022/12/21 02:21:26;;;;;;;7.10;6.47;;;;;20.90;99965.00;;;;2063370;28;20206;-55
2022/12/21 02:23:10;;;;;;;6.25;5.65;;;;;20.90;99966.00;;;;2062550;28;20207;-53
2022/12/21 02:24:22;;;;;;;6.93;6.20;;;;;20.90;99972.00;;;;2062707;28;20210;-55
2022/12/21 02:25:33;;;;;;;6.90;6.20;;;;;20.90;99965.00;;;;2048970;28;20313;-54
2022/12/21 02:27:04;;;;;;;7.13;6.45;;;;;20.90;99965.00;;;;2056549;28;20227;-54
2022/12/21 02:28:48;;;;;;;6.57;5.95;;;;;20.90;99971.00;;;;2063142;28;20685;-55
2022/12/21 02:30:00;;;;;;;6.10;5.60;;;;;20.90;99968.00;;;;2045401;29;20227;-54
2022/12/21 02:31:10;;;;;;;7.13;6.47;;;;;20.90;99962.00;;;;2064793;28;20761;-53
2022/12/21 02:32:33;;;;;;;6.63;6.03;;;;;20.90;99966.00;;;;2066041;28;20225;-53
2022/12/21 02:33:57;;;;;;;6.40;5.90;;;;;20.90;99963.00;;;;2058896;28;20222;-55
2022/12/21 02:35:22;;;;;;;6.75;6.05;;;;;20.80;99951.00;;;;2056704;28;20246;-54
2022/12/21 02:36:30;;;;;;;6.32;5.63;;;;;20.90;99950.00;;;;2064742;28;20300;-53
2022/12/21 02:37:43;;;;;;;6.40;5.80;;;;;20.90;99954.00;;;;2053875;28;20331;-54
2022/12/21 02:38:48;;;;;;;6.57;5.78;;;;;20.90;99955.00;;;;2055950;28;20660;-54
2022/12/21 02:40:19;;;;;;;6.85;5.70;;;;;20.90;99961.00;;;;2055216;28;20215;-53
2022/12/21 02:41:45;;;;;;;6.45;5.85;;;;;20.90;99962.00;;;;2058258;28;20683;-54
2022/12/21 02:44:42;;;;;;;6.68;5.47;;;;;20.80;99963.00;;;;2048891;28;20216;-53
2022/12/21 02:45:48;;;;;;;7.15;6.45;;;;;20.80;99958.00;;;;2052936;28;20215;-54
2022/12/21 02:47:02;;;;;;;7.15;5.68;;;;;20.80;99962.00;;;;2045859;28;20319;-53
2022/12/21 02:48:33;;;;;;;6.85;6.18;;;;;20.80;99966.00;;;;2048887;28;20218;-55
2022/12/21 02:49:45;;;;;;;5.95;5.35;;;;;20.80;99967.00;;;;2050975;28;20237;-55
2022/12/21 02:50:49;;;;;;;6.90;6.10;;;;;20.80;99968.00;;;;2060945;28;20222;-53
2022/12/21 02:52:10;;;;;;;6.10;5.50;;;;;20.80;99967.00;;;;2054075;28;20212;-55
2022/12/21 02:53:15;;;;;;;6.32;5.68;;;;;20.80;99963.00;;;;2055242;28;20219;-55
2022/12/21 02:54:16;;;;;;;5.95;5.35;;;;;20.80;99958.00;;;;2054883;28;20692;-53
2022/12/21 02:55:16;;;;;;;6.00;5.40;;;;;20.80;99968.00;;;;2046186;28;20462;-56
2022/12/21 02:56:17;;;;;;;6.20;5.60;;;;;20.80;99966.00;;;;2055003;28;20207;-55
2022/12/21 02:57:17;;;;;;;6.43;5.82;;;;;20.80;99965.00;;;;2063825;28;20737;-55
2022/12/21 02:58:20;;;;;;;5.23;4.73;;;;;20.80;99969.00;;;;2063488;28;20209;-54
2022/12/21 02:59:23;;;;;;;5.82;5.32;;;;;20.80;99964.00;;;;2063824;28;20210;-55
2022/12/21 03:00:23;;;;;;;6.38;5.75;;;;;20.80;99968.00;;;;2055222;28;20692;-54
2022/12/21 03:01:37;;;;;;;6.90;6.30;;;;;20.80;99967.00;;;;2046916;28;20267;-55
2022/12/21 03:02:37;;;;;;;6.55;5.95;;;;;20.80;99967.00;;;;2054695;28;20779;-53
2022/12/21 03:03:48;;;;;;;6.70;6.10;;;;;20.80;99970.00;;;;2054389;28;20220;-53
2022/12/21 03:05:03;;;;;;;6.30;5.70;;;;;20.80;99969.00;;;;2054832;28;20239;-52
2022/12/21 03:06:39;;;;;;;6.07;5.50;;;;;20.80;99972.00;;;;2056482;28;20214;-55
2022/12/21 03:08:09;;;;;;;5.85;5.35;;;;;20.80;99966.00;;;;2029923;29;20217;-54
2022/12/21 03:09:34;;;;;;;6.15;5.28;;;;;20.80;99956.00;;;;2014948;29;20234;-53
2022/12/21 03:10:35;;;;;;;6.05;5.45;;;;;20.80;99958.00;;;;2053476;28;20222;-55
2022/12/21 03:12:03;;;;;;;6.63;5.93;;;;;20.80;99960.00;;;;2055555;28;20362;-54
2022/12/21 03:13:18;;;;;;;7.22;6.00;;;;;20.70;99967.00;;;;2070117;28;20218;-55
2022/12/21 03:14:28;;;;;;;6.97;6.28;;;;;20.80;99951.00;;;;2067852;28;20230;-54
2022/12/21 03:15:32;;;;;;;5.75;5.25;;;;;20.70;99966.00;;;;2062835;28;20211;-52
2022/12/21 03:16:46;;;;;;;5.68;5.15;;;;;20.70;99966.00;;;;2062397;28;20582;-54
2022/12/21 03:18:08;;;;;;;5.90;5.35;;;;;20.70;99963.00;;;;2062899;28;20564;-52
2022/12/21 03:19:19;;;;;;;5.95;5.25;;;;;20.70;99965.00;;;;2058592;28;20211;-54
2022/12/21 03:20:22;;;;;;;6.63;5.63;;;;;20.70;99963.00;;;;2056114;28;20215;-54
2022/12/21 03:21:33;;;;;;;5.80;5.30;;;;;20.70;99958.00;;;;2063691;28;20848;-53
2022/12/21 03:22:51;;;;;;;6.40;5.60;;;;;20.70;99958.00;;;;2062088;28;20215;-54
2022/12/21 03:24:14;;;;;;;5.85;5.35;;;;;20.80;99956.00;;;;2047959;28;20576;-53
2022/12/21 03:25:37;;;;;;;5.95;5.38;;;;;20.60;99965.00;;;;2049832;28;20701;-53
2022/12/21 03:26:45;;;;;;;6.10;5.50;;;;;20.70;99944.00;;;;2054842;28;20214;-54
2022/12/21 03:27:47;;;;;;;6.35;5.75;;;;;20.70;99954.00;;;;2055599;28;20218;-53
2022/12/21 03:28:48;;;;;;;5.68;5.15;;;;;20.70;99951.00;;;;2054694;28;20231;-54
2022/12/21 03:29:53;;;;;;;5.53;5.03;;;;;20.70;99947.00;;;;2054952;28;20565;-54
2022/12/21 03:30:54;;;;;;;5.45;4.95;;;;;20.70;99956.00;;;;2046979;28;20897;-54
2022/12/21 03:31:57;;;;;;;6.20;5.60;;;;;20.70;99953.00;;;;2038753;28;20235;-54
2022/12/21 03:32:59;;;;;;;6.10;5.60;;;;;20.70;99955.00;;;;2046929;28;20212;-51
2022/12/21 03:34:06;;;;;;;5.78;5.22;;;;;20.70;99957.00;;;;2055021;28;20314;-53
2022/12/21 03:35:10;;;;;;;6.13;5.25;;;;;20.70;99944.00;;;;2054619;28;20219;-54
2022/12/21 03:36:15;;;;;;;6.05;5.45;;;;;20.70;99949.00;;;;2048066;28;20264;-54
2022/12/21 03:37:20;;;;;;;5.85;5.25;;;;;20.70;99941.00;;;;2055459;28;20778;-53
2022/12/21 03:38:45;;;;;;;5.53;4.90;;;;;20.70;99930.00;;;;2054759;28;20642;-54
2022/12/21 03:39:48;;;;;;;5.68;5.07;;;;;20.70;99941.00;;;;2056477;28;20598;-54
2022/12/21 03:40:51;;;;;;;5.95;5.45;;;;;20.70;99937.00;;;;2062489;28;20219;-53
2022/12/21 03:41:56;;;;;;;6.28;5.65;;;;;20.70;99943.00;;;;2053384;28;20279;-54
2022/12/21 03:43:04;;;;;;;6.10;5.47;;;;;20.70;99938.00;;;;2046882;28;20681;-54
2022/12/21 03:44:05;;;;;;;6.80;6.10;;;;;20.70;99939.00;;;;2049023;28;20216;-55
2022/12/21 03:45:11;;;;;;;5.78;5.07;;;;;20.70;99938.00;;;;2052973;28;20242;-54
2022/12/21 03:46:32;;;;;;;5.40;4.90;;;;;20.70;99931.00;;;;2054056;28;20295;-54
2022/12/21 03:47:46;;;;;;;5.47;4.93;;;;;20.70;99931.00;;;;2060245;28;20305;-54
2022/12/21 03:48:58;;;;;;;6.60;6.00;;;;;20.70;99931.00;;;;2062574;28;20310;-53
2022/12/21 03:50:00;;;;;;;6.07;5.47;;;;;20.70;99930.00;;;;2054181;28;20215;-53
2022/12/21 03:51:05;;;;;;;5.28;4.78;;;;;20.70;99929.00;;;;2054726;28;21061;-53
2022/12/21 03:52:08;;;;;;;5.90;5.35;;;;;20.70;99931.00;;;;2054335;28;20220;-53
2022/12/21 03:53:32;;;;;;;5.70;5.15;;;;;20.70;99927.00;;;;2054984;28;20215;-53
2022/12/21 03:54:53;;;;;;;6.60;5.97;;;;;20.70;99929.00;;;;2062496;28;20238;-54
2022/12/21 03:55:53;;;;;;;5.53;5.03;;;;;20.60;99948.00;;;;2055527;28;20223;-54
2022/12/21 03:56:53;;;;;;;5.67;5.20;;;;;20.70;99936.00;;;;2054867;28;20607;-55
2022/12/21 03:57:54;;;;;;;5.80;5.20;;;;;20.60;99926.00;;;;2062782;28;20579;-55
2022/12/21 03:58:54;;;;;;;5.80;5.17;;;;;20.60;99930.00;;;;2063213;28;20273;-55
2022/12/21 03:59:56;;;;;;;4.93;4.47;;;;;20.60;99927.00;;;;2063046;28;20485;-54
2022/12/21 04:01:25;;;;;;;5.43;4.88;;;;;20.60;99926.00;;;;2054260;28;20282;-56
2022/12/21 04:02:43;;;;;;;5.82;5.32;;;;;20.60;99929.00;;;;2038956;29;20213;-54
2022/12/21 04:03:46;;;;;;;5.97;4.82;;;;;20.60;99923.00;;;;2059324;28;20223;-55
2022/12/21 04:05:02;;;;;;;6.07;5.25;;;;;20.60;99922.00;;;;2054382;28;20227;-53
2022/12/21 04:06:04;;;;;;;5.18;4.68;;;;;20.60;99922.00;;;;2058678;28;20215;-54
2022/12/21 04:07:05;;;;;;;5.30;4.88;;;;;20.60;99915.00;;;;2062455;28;20736;-55
2022/12/21 04:08:05;;;;;;;5.50;5.00;;;;;20.60;99913.00;;;;2054917;28;20215;-53
2022/12/21 04:09:06;;;;;;;5.50;5.00;;;;;20.60;99916.00;;;;2054453;28;20208;-55
2022/12/21 04:10:08;;;;;;;5.30;4.80;;;;;20.60;99908.00;;;;2062054;28;20226;-54
2022/12/21 04:12:35;;;;;;;4.95;4.45;;;;;20.60;99911.00;;;;2061479;28;20730;-54
2022/12/21 04:12:36;;;;;;;5.55;5.05;;;;;20.60;99908.00;;;;2051268;28;20273;-52
2022/12/21 04:13:37;;;;;;;5.30;4.80;;;;;20.60;99910.00;;;;2062961;28;20215;-54
2022/12/21 04:14:37;;;;;;;5.50;5.00;;;;;20.60;99906.00;;;;2063017;28;20229;-53
2022/12/21 04:16:56;;;;;;;4.80;4.40;;;;;20.60;99905.00;;;;2063244;28;20707;-54
2022/12/21 04:17:56;;;;;;;4.80;4.30;;;;;20.60;99897.00;;;;2067301;28;20226;-54
2022/12/21 04:20:22;;;;;;;4.75;4.35;;;;;20.60;99903.00;;;;2071127;28;20210;-53
2022/12/21 04:21:23;;;;;;;5.05;4.55;;;;;20.60;99913.00;;;;2071204;28;20217;-53
2022/12/21 04:29:02;;;;;;;5.45;4.95;;;;;20.60;99899.00;;;;2070699;28;20226;-53
2022/12/21 04:30:03;;;;;;;5.20;4.73;;;;;20.60;99887.00;;;;2065778;28;20214;-53
2022/12/21 04:31:03;;;;;;;4.65;4.20;;;;;20.60;99900.00;;;;2070689;28;20210;-55
2022/12/21 04:32:04;;;;;;;5.57;5.00;;;;;20.50;99894.00;;;;2070133;28;20271;-53
2022/12/21 04:33:04;;;;;;;4.40;4.00;;;;;20.60;99903.00;;;;2071291;28;20554;-53
2022/12/21 04:34:05;;;;;;;6.60;5.40;;;;;20.50;99856.00;;;;2070880;28;20284;-54
2022/12/21 04:35:05;;;;;;;5.00;4.50;;;;;20.50;99894.00;;;;2071247;28;20569;-54
2022/12/21 04:37:31;;;;;;;5.10;4.60;;;;;20.60;99892.00;;;;2071144;28;20242;-53
2022/12/21 04:38:33;;;;;;;5.00;4.60;;;;;20.60;99898.00;;;;2070699;28;20557;-57
2022/12/21 04:39:33;;;;;;;4.85;4.35;;;;;20.60;99896.00;;;;2061789;28;21226;-54
2022/12/21 04:40:33;;;;;;;4.83;4.40;;;;;20.60;99901.00;;;;2062447;28;20378;-54
2022/12/21 04:41:34;;;;;;;5.23;4.60;;;;;20.50;99899.00;;;;2070755;28;20248;-55
2022/12/21 04:42:34;;;;;;;4.30;3.90;;;;;20.50;99900.00;;;;2069759;28;20218;-54
2022/12/21 04:43:38;;;;;;;5.23;4.73;;;;;20.50;99900.00;;;;2070787;28;20245;-55
2022/12/21 04:44:38;;;;;;;5.00;4.50;;;;;20.50;99899.00;;;;2070590;28;20267;-54
2022/12/21 04:45:39;;;;;;;5.77;5.20;;;;;20.50;99894.00;;;;2071133;28;20222;-54
2022/12/21 04:46:39;;;;;;;5.40;4.50;;;;;20.50;99895.00;;;;2070624;28;20276;-52
2022/12/21 04:47:39;;;;;;;6.20;5.07;;;;;20.50;99898.00;;;;2070757;28;20222;-53
2022/12/21 04:48:40;;;;;;;5.43;4.93;;;;;20.50;99898.00;;;;2070871;28;20233;-54
2022/12/21 04:49:41;;;;;;;4.77;4.37;;;;;20.50;99896.00;;;;2070619;28;20256;-54
2022/12/21 04:50:42;;;;;;;4.57;4.17;;;;;20.50;99893.00;;;;2071107;28;20969;-53
2022/12/21 04:51:42;;;;;;;5.40;4.37;;;;;20.50;99892.00;;;;2066326;28;20978;-54
2022/12/21 04:52:42;;;;;;;5.17;4.67;;;;;20.50;99882.00;;;;2067060;28;20226;-55
2022/12/21 04:53:43;;;;;;;4.93;4.23;;;;;20.50;99883.00;;;;2070747;28;20795;-53
2022/12/21 04:54:43;;;;;;;4.40;4.00;;;;;20.50;99882.00;;;;2070838;28;20218;-52
2022/12/21 04:55:45;;;;;;;4.60;4.20;;;;;20.50;99883.00;;;;2066281;28;20480;-54
2022/12/21 04:56:45;;;;;;;4.80;4.28;;;;;20.50;99879.00;;;;2054297;28;20220;-54
2022/12/21 04:57:46;;;;;;;5.23;4.73;;;;;20.50;99888.00;;;;2054239;28;20234;-54
2022/12/21 04:58:46;;;;;;;3.60;3.30;;;;;20.50;99889.00;;;;2062806;28;20250;-52
2022/12/21 04:59:46;;;;;;;4.47;4.07;;;;;20.50;99889.00;;;;2054059;28;20242;-54
2022/12/21 05:00:47;;;;;;;6.60;5.10;;;;;20.50;99888.00;;;;2054171;28;20274;-53
2022/12/21 05:01:47;;;;;;;4.73;4.30;;;;;20.50;99893.00;;;;2062226;28;20234;-55
2022/12/21 05:02:47;;;;;;;4.40;4.00;;;;;20.50;99896.00;;;;2062261;28;20234;-53
2022/12/21 05:03:48;;;;;;;4.93;4.47;;;;;20.50;99890.00;;;;2062410;28;20218;-53
2022/12/21 05:04:48;;;;;;;5.10;4.60;;;;;20.50;99886.00;;;;2062893;28;20265;-53
2022/12/21 05:05:49;;;;;;;5.60;5.10;;;;;20.50;99896.00;;;;2062714;28;20229;-54
2022/12/21 05:06:49;;;;;;;4.67;4.27;;;;;20.50;99887.00;;;;2062798;28;20223;-54
2022/12/21 05:07:52;;;;;;;4.60;4.20;;;;;20.50;99886.00;;;;2062500;28;20289;-55
2022/12/21 05:08:52;;;;;;;5.05;4.55;;;;;20.50;99888.00;;;;2062442;28;20230;-53
2022/12/21 05:09:52;;;;;;;4.83;4.43;;;;;20.50;99894.00;;;;2062590;28;20214;-53
2022/12/21 05:10:53;;;;;;;4.90;4.40;;;;;20.50;99887.00;;;;2062596;28;20226;-53
2022/12/21 05:11:54;;;;;;;5.33;4.83;;;;;20.50;99898.00;;;;2061792;28;20820;-54
2022/12/21 05:12:54;;;;;;;4.93;4.43;;;;;20.50;99895.00;;;;2062531;28;20238;-54
2022/12/21 05:13:55;;;;;;;4.70;4.30;;;;;20.50;99894.00;;;;2062635;28;20218;-54
2022/12/21 05:14:55;;;;;;;6.10;5.50;;;;;20.40;99899.00;;;;2062450;28;20222;-54
2022/12/21 05:15:55;;;;;;;4.50;4.10;;;;;20.40;99900.00;;;;2062747;28;20246;-54
2022/12/21 05:16:55;;;;;;;5.17;4.57;;;;;20.50;99900.00;;;;2062789;28;20203;-55
2022/12/21 05:17:59;;;;;;;5.37;4.30;;;;;20.40;99898.00;;;;2062647;28;20305;-55
2022/12/21 05:18:59;;;;;;;4.50;4.10;;;;;20.50;99900.00;;;;2062135;28;20233;-53
2022/12/21 05:19:59;;;;;;;5.40;4.30;;;;;20.50;99900.00;;;;2062694;28;20270;-54
2022/12/21 05:21:00;;;;;;;4.93;4.40;;;;;20.50;99889.00;;;;2062717;28;20231;-53
2022/12/21 05:22:00;;;;;;;4.57;4.17;;;;;20.50;99889.00;;;;2061677;28;20281;-52
2022/12/21 05:23:01;;;;;;;5.30;4.80;;;;;20.40;99892.00;;;;2062511;28;20369;-54
2022/12/21 05:24:01;;;;;;;5.10;4.50;;;;;20.40;99893.00;;;;2069540;28;20216;-53
2022/12/21 05:25:01;;;;;;;5.70;4.67;;;;;20.40;99894.00;;;;2070743;28;20218;-53
2022/12/21 05:26:02;;;;;;;5.13;4.60;;;;;20.40;99888.00;;;;2070795;28;20214;-53
2022/12/21 05:27:03;;;;;;;5.93;4.97;;;;;20.40;99895.00;;;;2068314;28;20228;-54
2022/12/21 05:28:03;;;;;;;5.80;5.20;;;;;20.40;99893.00;;;;2062520;28;20261;-54
2022/12/21 05:29:03;;;;;;;5.37;4.87;;;;;20.40;99895.00;;;;2062395;28;20234;-53
2022/12/21 05:30:04;;;;;;;5.30;4.80;;;;;20.40;99888.00;;;;2062090;28;20360;-54
2022/12/21 05:31:05;;;;;;;5.53;5.03;;;;;20.40;99891.00;;;;2062169;28;20233;-52
2022/12/21 05:32:05;;;;;;;6.53;4.60;;;;;20.40;99890.00;;;;2061716;28;20218;-53
2022/12/21 05:33:06;;;;;;;5.37;4.20;;;;;20.40;99894.00;;;;2062696;28;20219;-53
2022/12/21 05:34:06;;;;;;;5.13;4.53;;;;;20.40;99894.00;;;;2062501;28;20679;-53